Terminal Aerodrome Forecast
Issued by NWS

Home | Current Version | Previous Version | Text Only | Print | Product List | Glossary On
Versions: 1 2 3 4 5 6 7 8 9 10 11 12 13 14 15 16 17 18 19 20 21 22 23 24 25 26 27 28 29 30 31 32 33 34 35 36 37 38 39 40 41 42 43 44 45 46 47 48 49 50
000
FTUS45 KBOU 241528 AAB
TAFBJC
TAF AMD
KBJC 241528Z 2415/2512 02004KT 2SM -SN BKN008 OVC020
      TEMPO 2415/2417 1SM -SN BR OVC006
     FM241800 01006KT P6SM SCT012 BKN022 OVC040
      TEMPO 2418/2420 6SM -SN BR BKN012
     FM242100 06008KT P6SM SCT022 BKN040
      TEMPO 2421/2501 3SM -SHSN BKN020
     FM250200 08006KT P6SM SCT025 BKN050
     FM250600 30006KT P6SM FEW070=

USA.gov is the U.S. government's official web portal to all federal, state and local government web resources and services.